createdAt,value
2017-05-18T07:40:15.520Z,26.89
2017-05-18T07:41:18.275Z,26.84
2017-05-18T07:42:39.399Z,26.91
2017-05-18T07:43:41.986Z,26.89
2017-05-18T07:45:04.021Z,26.92
2017-05-18T07:46:11.823Z,26.87
2017-05-18T07:47:19.429Z,26.95
2017-05-18T07:48:21.639Z,26.87
2017-05-18T07:49:23.723Z,27.00
2017-05-18T07:50:27.159Z,27.04
2017-05-18T07:51:34.754Z,27.00
2017-05-18T07:52:36.261Z,26.97
2017-05-18T07:54:46.365Z,27.00
2017-05-18T07:55:49.027Z,26.91
2017-05-18T07:58:15.068Z,27.22
2017-05-18T08:07:19.235Z,25.46
2017-05-18T08:23:07.784Z,24.10
2017-05-18T08:23:38.718Z,24.18
2017-05-18T08:24:43.546Z,24.42
2017-05-18T08:25:45.694Z,24.22
2017-05-18T08:27:06.278Z,24.46
2017-05-18T08:28:07.662Z,24.45
2017-05-18T08:29:28.702Z,24.60
2017-05-18T08:33:42.801Z,24.87
2017-05-18T08:34:44.179Z,24.98
2017-05-18T08:35:46.170Z,25.03
2017-05-18T08:36:59.063Z,25.15
2017-05-18T08:38:01.183Z,25.24
2017-05-18T08:39:02.614Z,25.21
2017-05-18T08:40:05.872Z,25.27
2017-05-18T08:41:06.734Z,25.20
2017-05-18T08:42:08.157Z,25.25
2017-05-18T08:43:10.680Z,25.39
2017-05-18T08:44:12.095Z,25.46
2017-05-18T08:45:13.533Z,25.51
2017-05-18T08:46:14.895Z,25.57
2017-05-18T08:47:17.171Z,25.61
2017-05-18T08:48:25.742Z,25.62
2017-05-18T08:49:27.179Z,25.72
2017-05-18T08:50:29.198Z,25.88
2017-05-18T08:51:30.641Z,26.05
2017-05-18T08:52:32.672Z,26.06
2017-05-18T08:53:34.104Z,26.21
2017-05-18T08:54:36.169Z,26.07
2017-05-18T08:55:39.556Z,26.05
2017-05-18T08:56:40.978Z,26.15
2017-05-18T08:57:43.170Z,26.20
2017-05-18T08:58:44.597Z,26.23
2017-05-18T08:59:46.695Z,26.39
2017-05-18T09:00:48.691Z,26.48
2017-05-18T09:01:50.113Z,26.45
2017-05-18T09:02:52.176Z,26.45
2017-05-18T09:03:53.613Z,26.51
2017-05-18T09:04:55.674Z,26.40
2017-05-18T09:05:57.693Z,26.40
2017-05-18T09:06:59.136Z,26.33
2017-05-18T09:08:01.178Z,26.28
2017-05-18T09:09:02.611Z,26.28
2017-05-18T09:10:04.699Z,26.50
2017-05-18T09:11:06.129Z,26.47
2017-05-18T09:12:08.205Z,26.30
2017-05-18T09:13:12.182Z,26.29
2017-05-18T09:14:45.121Z,26.25
2017-05-18T09:15:59.508Z,25.67
2017-05-18T09:17:12.861Z,25.77
2017-05-18T09:18:15.217Z,25.97
2017-05-18T09:19:20.949Z,25.95
2017-05-18T09:20:23.180Z,26.01
2017-05-18T09:21:29.216Z,26.01
2017-05-18T09:22:41.982Z,26.02
2017-05-18T09:23:43.640Z,25.99
2017-05-18T09:24:53.269Z,25.97
2017-05-18T09:25:55.687Z,25.85
2017-05-18T09:26:57.682Z,25.83
2017-05-18T09:27:59.681Z,25.79
2017-05-18T09:29:01.111Z,25.83
2017-05-18T09:30:03.180Z,25.92
2017-05-18T09:31:04.611Z,26.06
2017-05-18T09:32:06.679Z,26.07
2017-05-18T09:33:08.683Z,26.10
2017-05-18T09:34:10.115Z,26.05
2017-05-18T09:35:12.182Z,26.10
2017-05-18T09:36:13.618Z,26.09
2017-05-18T09:37:15.048Z,26.17
2017-05-18T09:38:17.184Z,26.30
2017-05-18T09:39:18.626Z,26.28
2017-05-18T09:40:20.687Z,26.25
2017-05-18T09:41:22.111Z,26.39
2017-05-18T09:42:24.275Z,26.44
2017-05-18T09:43:26.688Z,26.48
2017-05-18T09:44:28.120Z,26.48
2017-05-18T09:45:30.189Z,26.63
2017-05-18T09:46:31.623Z,26.69
2017-05-18T09:47:33.690Z,26.75
2017-05-18T09:48:35.118Z,26.89
2017-05-18T09:49:37.438Z,26.84
2017-05-18T10:06:42.319Z,25.95
2017-05-18T10:07:45.221Z,25.91
2017-05-18T10:08:47.313Z,25.83
2017-05-18T10:09:49.356Z,25.85
2017-05-18T10:10:53.099Z,25.83
2017-05-18T10:11:58.319Z,25.85
2017-05-18T10:13:04.812Z,25.83
2017-05-18T10:14:08.726Z,25.82
2017-05-18T10:15:10.544Z,25.73
2017-05-18T10:16:15.714Z,25.73
2017-05-18T10:17:18.540Z,25.65
2017-05-18T10:18:20.662Z,25.72
2017-05-18T10:19:24.211Z,25.47
2017-05-18T10:20:26.823Z,25.55
2017-05-18T10:21:31.490Z,25.60
2017-05-18T10:22:34.782Z,25.55
2017-05-18T10:24:26.041Z,25.62
2017-05-18T10:25:28.155Z,25.67
2017-05-18T10:26:55.418Z,25.85
2017-05-18T10:27:56.843Z,25.79
2017-05-18T10:29:17.359Z,25.91
2017-05-18T10:30:20.895Z,25.95
2017-05-18T10:31:42.227Z,25.87
2017-05-18T10:32:43.656Z,25.97
2017-05-18T10:33:47.239Z,26.05
2017-05-18T10:34:49.677Z,25.95
2017-05-18T10:36:19.598Z,26.05
2017-05-18T10:37:24.631Z,25.99
2017-05-18T10:38:30.339Z,26.17
2017-05-18T10:39:32.300Z,26.21
2017-05-18T10:40:34.811Z,26.32
2017-05-18T10:41:40.897Z,26.28
2017-05-18T10:42:44.058Z,26.44
2017-05-18T10:43:46.307Z,26.40
2017-05-18T10:44:49.829Z,26.50
2017-05-18T10:45:52.830Z,26.66
2017-05-18T10:46:55.750Z,26.76
2017-05-18T10:47:57.907Z,26.75
2017-05-18T10:49:03.564Z,26.76
2017-05-18T10:50:07.246Z,26.77
2017-05-18T10:51:09.619Z,26.81
2017-05-18T10:52:13.128Z,26.80
2017-05-18T10:53:15.229Z,26.85
2017-05-18T10:54:18.575Z,26.89
2017-05-18T10:55:20.711Z,26.89
2017-05-18T10:56:23.356Z,27.06
2017-05-18T10:57:25.355Z,27.02
2017-05-18T10:58:28.188Z,27.06
2017-05-18T10:59:30.680Z,27.17
2017-05-18T11:00:38.170Z,27.21
2017-05-18T11:01:41.183Z,27.24
2017-05-18T11:02:44.339Z,27.29
2017-05-18T11:03:53.156Z,27.29
2017-05-18T11:04:54.614Z,27.24
2017-05-18T11:05:56.605Z,27.14
2017-05-18T11:06:59.356Z,27.21
2017-05-18T11:08:00.795Z,27.09
2017-05-18T11:09:02.235Z,27.00
2017-05-18T11:10:04.607Z,27.06
2017-05-18T11:11:06.038Z,26.95
2017-05-18T11:12:08.107Z,26.94
2017-05-18T11:13:09.537Z,26.84
2017-05-18T11:14:12.913Z,26.87
2017-05-18T11:16:28.024Z,26.95
2017-05-18T11:17:31.267Z,26.97
2017-05-18T11:18:33.328Z,27.04
2017-05-18T11:19:36.499Z,27.00
2017-05-18T11:20:36.990Z,27.09
2017-05-18T11:21:39.319Z,27.10
2017-05-18T11:22:40.753Z,27.28
2017-05-18T11:23:42.188Z,27.24
2017-05-18T11:24:43.622Z,27.41
2017-05-18T11:25:45.684Z,27.47
2017-05-18T11:26:48.578Z,27.57
2017-05-18T11:27:53.313Z,27.57
2017-05-18T11:29:21.907Z,27.51
2017-05-18T11:30:25.360Z,27.49
2017-05-18T11:31:28.901Z,27.67
2017-05-18T11:32:30.791Z,27.66
2017-05-18T11:33:32.793Z,27.69
2017-05-18T11:34:37.037Z,27.54
2017-05-18T11:35:41.038Z,27.47
2017-05-18T11:36:42.496Z,27.44
2017-05-18T11:37:45.396Z,27.37
2017-05-18T11:38:47.724Z,27.29
2017-05-18T11:39:49.191Z,27.47
2017-05-18T11:40:51.211Z,27.28
2017-05-18T11:41:55.114Z,27.12
2017-05-18T11:42:55.641Z,27.07
2017-05-18T11:43:58.021Z,26.76
2017-05-18T11:45:00.813Z,26.77
2017-05-18T11:46:02.250Z,26.77
2017-05-18T11:47:03.681Z,26.77
2017-05-18T11:48:05.113Z,26.30
2017-05-18T11:49:06.542Z,26.33
2017-05-18T11:50:07.976Z,26.40
2017-05-18T11:52:18.192Z,26.48
2017-05-18T11:53:19.494Z,26.50
2017-05-18T11:54:20.845Z,26.65
2017-05-18T11:55:23.169Z,26.57
2017-05-18T11:56:25.087Z,26.45
2017-05-18T11:57:27.978Z,26.21
2017-05-18T11:59:08.640Z,26.33
2017-05-18T12:00:10.029Z,26.52
2017-05-18T12:01:31.933Z,26.70
2017-05-18T12:02:33.363Z,26.77
2017-05-18T12:03:53.912Z,26.89
2017-05-18T12:04:56.599Z,26.94
2017-05-18T12:06:17.175Z,26.88
2017-05-18T12:07:18.608Z,26.99
2017-05-18T12:08:39.146Z,26.89
2017-05-18T12:09:40.569Z,26.97
2017-05-18T12:11:02.118Z,27.07
2017-05-18T12:17:56.769Z,26.76
2017-05-18T12:18:58.910Z,26.73
2017-05-18T12:20:20.437Z,26.70
2017-05-18T12:21:21.868Z,26.75
2017-05-18T12:22:43.394Z,26.76
2017-05-18T12:23:44.824Z,26.73
2017-05-18T12:25:06.349Z,26.80
2017-05-18T12:26:09.956Z,26.85
2017-05-18T12:27:32.130Z,26.81
2017-05-18T12:28:35.363Z,26.81
2017-05-18T12:29:56.938Z,26.88
2017-05-18T12:30:58.367Z,26.81
2017-05-18T12:32:19.895Z,26.87
2017-05-18T12:33:21.319Z,26.85
2017-05-18T12:34:42.846Z,26.89
2017-05-18T12:35:44.274Z,26.97
2017-05-18T12:37:05.801Z,27.00
2017-05-18T12:38:07.226Z,26.97
2017-05-18T12:39:28.757Z,27.07
2017-05-18T12:40:30.190Z,26.99
2017-05-18T12:41:51.750Z,27.06
2017-05-18T12:42:53.180Z,27.02
2017-05-18T12:44:14.704Z,27.04
2017-05-18T12:45:16.129Z,27.09
2017-05-18T12:46:37.657Z,27.06
2017-05-18T12:47:39.081Z,27.09
2017-05-18T12:49:00.617Z,27.14
2017-05-18T12:50:02.611Z,27.09
2017-05-18T12:51:24.191Z,27.10
2017-05-18T12:52:25.567Z,27.12
2017-05-18T12:53:47.130Z,27.12
2017-05-18T12:54:48.554Z,27.17
2017-05-18T12:56:10.080Z,27.19
2017-05-18T12:57:11.503Z,27.12
2017-05-18T12:58:33.030Z,27.22
2017-05-18T12:59:34.457Z,27.17
2017-05-18T13:00:55.983Z,27.27
2017-05-18T13:01:57.409Z,27.19
2017-05-18T13:03:18.935Z,27.17
2017-05-18T13:04:20.362Z,27.17
2017-05-18T13:05:42.067Z,27.25
2017-05-18T13:06:43.493Z,27.29
2017-05-18T13:08:05.023Z,27.29
2017-05-18T13:09:06.447Z,27.22
2017-05-18T13:10:27.973Z,27.28
2017-05-18T13:11:29.400Z,27.27
2017-05-18T13:12:50.926Z,27.25
2017-05-18T13:13:52.353Z,27.28
2017-05-18T13:15:13.878Z,27.37
2017-05-18T13:16:15.303Z,27.37
2017-05-18T13:17:36.865Z,27.39
2017-05-18T13:18:38.296Z,27.36
2017-05-18T13:19:59.819Z,27.40
2017-05-18T13:21:01.243Z,27.41
2017-05-18T13:22:22.775Z,27.37
2017-05-18T13:23:24.849Z,27.36
2017-05-18T13:24:46.373Z,27.41
2017-05-18T13:25:47.802Z,27.41
2017-05-18T13:27:09.331Z,27.41
2017-05-18T13:28:10.762Z,27.34
2017-05-18T13:29:32.327Z,27.41
2017-05-18T13:30:33.755Z,27.39
2017-05-18T13:31:55.281Z,27.50
2017-05-18T13:32:56.707Z,27.47
2017-05-18T13:34:18.236Z,27.41
2017-05-18T13:35:19.665Z,27.37
2017-05-18T13:36:41.195Z,27.46
2017-05-18T13:37:42.624Z,27.41
2017-05-18T13:39:04.152Z,27.44
2017-05-18T13:40:05.572Z,27.41
2017-05-18T13:41:27.144Z,27.40
2017-05-18T13:42:28.572Z,27.44
2017-05-18T13:43:50.101Z,27.51
2017-05-18T13:44:51.526Z,27.46
2017-05-18T13:46:13.054Z,27.60
2017-05-18T13:47:14.484Z,27.49
2017-05-18T13:48:36.008Z,27.54
2017-05-18T13:49:37.436Z,27.49
2017-05-18T13:50:58.963Z,27.51
2017-05-18T13:52:00.388Z,27.51
2017-05-18T13:53:21.951Z,27.50
2017-05-18T13:54:23.378Z,27.51
2017-05-18T13:55:44.904Z,27.46
2017-05-18T13:56:46.327Z,27.51
2017-05-18T13:58:07.856Z,27.55
2017-05-18T13:59:09.284Z,27.50
2017-05-18T14:00:30.811Z,27.49
2017-05-18T14:01:32.236Z,27.60
2017-05-18T14:02:53.761Z,27.60
2017-05-18T14:03:55.188Z,27.54
2017-05-18T14:05:16.751Z,27.59
2017-05-18T14:06:18.178Z,27.62
2017-05-18T14:07:39.704Z,27.51
2017-05-18T14:08:41.133Z,27.50
2017-05-18T14:10:02.662Z,27.62
2017-05-18T14:11:04.084Z,27.57
2017-05-18T14:12:25.614Z,27.63
2017-05-18T14:13:27.046Z,27.63
2017-05-18T14:14:48.571Z,27.62
2017-05-18T14:15:49.999Z,27.51
2017-05-18T14:17:11.572Z,27.65
2017-05-18T14:18:13.000Z,27.60
2017-05-18T14:19:34.526Z,27.63
2017-05-18T14:20:35.952Z,27.63
2017-05-18T14:21:57.484Z,27.63
2017-05-18T14:22:58.906Z,27.62
2017-05-18T14:24:20.433Z,27.65
2017-05-18T14:25:21.859Z,27.62
2017-05-18T14:26:43.387Z,27.69
2017-05-18T14:27:44.813Z,27.69
2017-05-18T14:29:06.379Z,27.74
2017-05-18T14:30:07.807Z,27.66
2017-05-18T14:31:29.337Z,27.75
2017-05-18T14:32:30.765Z,27.77
2017-05-18T14:33:52.291Z,27.75
2017-05-18T14:34:53.718Z,27.75
2017-05-18T14:36:15.242Z,27.70
2017-05-18T14:37:16.666Z,27.63
2017-05-18T14:38:38.192Z,27.78
2017-05-18T14:39:39.619Z,27.75
2017-05-18T14:41:01.199Z,27.74
2017-05-18T14:42:02.625Z,27.75
2017-05-18T14:43:24.154Z,27.77
2017-05-18T14:44:25.575Z,27.79
2017-05-18T14:45:47.101Z,27.81
2017-05-18T14:46:48.530Z,27.78
2017-05-18T14:48:10.060Z,27.85
2017-05-18T14:49:11.484Z,27.78
2017-05-18T14:50:33.007Z,27.85
2017-05-18T14:51:34.433Z,27.74
2017-05-18T14:52:56.005Z,27.85
2017-05-18T14:53:57.435Z,27.81
2017-05-18T14:55:18.959Z,27.84
2017-05-18T14:56:20.386Z,27.82
2017-05-18T14:57:41.909Z,27.81
2017-05-18T14:58:43.337Z,27.79
2017-05-18T15:00:04.879Z,27.90
2017-05-18T15:01:06.308Z,27.84
2017-05-18T15:02:27.835Z,27.92
2017-05-18T15:03:29.265Z,27.81
2017-05-18T15:04:50.814Z,27.85
2017-05-18T15:05:52.240Z,27.90
2017-05-18T15:07:13.800Z,27.82
2017-05-18T15:08:15.228Z,27.84
2017-05-18T15:09:36.760Z,27.94
2017-05-18T15:10:38.188Z,27.92
2017-05-18T15:11:59.715Z,27.92
2017-05-18T15:13:01.141Z,27.93
2017-05-18T15:14:22.667Z,27.97
2017-05-18T15:15:24.092Z,28.00
2017-05-18T15:16:45.619Z,28.00
2017-05-18T15:17:47.046Z,28.02
2017-05-18T15:19:08.620Z,27.99
2017-05-18T15:20:10.047Z,28.00
2017-05-18T15:21:31.574Z,27.94
2017-05-18T15:22:32.998Z,28.02
2017-05-18T15:23:54.525Z,27.99
2017-05-18T15:24:55.951Z,27.97
2017-05-18T15:26:17.477Z,27.97
2017-05-18T15:27:18.906Z,27.96
2017-05-18T15:28:40.436Z,27.97
2017-05-18T15:29:41.864Z,28.06
2017-05-18T15:31:03.432Z,28.09
2017-05-18T15:32:04.854Z,27.97
2017-05-18T15:33:26.382Z,28.09
2017-05-18T15:34:27.809Z,28.09
2017-05-18T15:35:49.336Z,28.18
2017-05-18T15:36:50.763Z,28.15
2017-05-18T15:38:12.292Z,28.31
2017-05-18T15:39:13.720Z,28.29
2017-05-18T15:40:35.245Z,28.18
2017-05-18T15:41:36.672Z,28.33
2017-05-18T15:42:58.244Z,28.40
2017-05-18T15:43:59.676Z,28.34
2017-05-18T15:45:21.209Z,28.41
2017-05-18T15:46:22.633Z,28.37
2017-05-18T15:47:44.161Z,28.40
2017-05-18T15:48:45.591Z,28.34
2017-05-18T15:50:07.116Z,28.40
2017-05-18T15:51:08.576Z,28.40
2017-05-18T15:52:30.080Z,28.34
2017-05-18T15:53:31.513Z,28.30
2017-05-18T15:54:53.111Z,28.31
2017-05-18T15:55:54.543Z,28.27
2017-05-18T15:57:17.431Z,28.22
2017-05-18T15:58:18.858Z,28.27
2017-05-18T15:59:40.380Z,28.30
2017-05-18T16:00:41.806Z,28.25
2017-05-18T16:02:03.337Z,28.33
2017-05-18T16:03:04.761Z,28.36
2017-05-18T16:04:26.286Z,28.37
2017-05-18T16:05:27.712Z,28.34
2017-05-18T16:06:49.278Z,28.33
2017-05-18T16:07:50.704Z,28.19
2017-05-18T16:09:12.228Z,28.25
2017-05-18T16:10:13.656Z,28.19
2017-05-18T16:11:35.186Z,28.22
2017-05-18T16:12:36.621Z,28.17
2017-05-18T16:13:58.141Z,28.15
2017-05-18T16:14:59.568Z,28.25
2017-05-18T16:16:21.096Z,28.30
2017-05-18T16:17:22.524Z,28.31
2017-05-18T16:18:44.107Z,28.43
2017-05-18T16:19:45.532Z,28.30
2017-05-18T16:21:07.060Z,28.36
2017-05-18T16:22:08.487Z,28.29
2017-05-18T16:23:30.011Z,28.31
2017-05-18T16:24:31.434Z,28.25
2017-05-18T16:25:52.959Z,28.18
2017-05-18T16:26:54.386Z,28.25
2017-05-18T16:28:15.911Z,28.19
2017-05-18T16:29:17.336Z,28.22
2017-05-18T16:30:38.881Z,28.18
2017-05-18T16:31:40.309Z,28.11
2017-05-18T16:33:01.861Z,28.24
2017-05-18T16:34:03.292Z,28.18
2017-05-18T16:35:24.819Z,28.15
2017-05-18T16:36:26.245Z,28.07
2017-05-18T16:37:47.770Z,28.12
2017-05-18T16:38:49.197Z,28.11
2017-05-18T16:40:10.723Z,28.07
2017-05-18T16:41:12.148Z,28.09
2017-05-18T16:42:33.674Z,28.07
2017-05-18T16:43:35.098Z,28.06
2017-05-18T16:44:56.683Z,28.09
2017-05-18T16:45:58.112Z,28.09
2017-05-18T16:47:19.639Z,28.14
2017-05-18T16:48:21.066Z,28.03
2017-05-18T16:49:42.587Z,28.06
2017-05-18T16:50:44.016Z,28.11
2017-05-18T16:52:05.539Z,28.07
2017-05-18T16:53:06.965Z,28.07
2017-05-18T16:54:28.541Z,28.11
2017-05-18T16:55:29.918Z,27.99
2017-05-18T16:56:51.504Z,28.07
